sensor_id;sensor_type;location;lat;lon;timestamp;pressure;altitude;pressure_sealevel;temperature;humidity
63111;BME280;49201;53.426;10.300;2023-04-01T00:01:54;99571.47;;;10.52;100.00
63111;BME280;49201;53.426;10.300;2023-04-01T00:04:19;99567.22;;;10.51;100.00
63111;BME280;49201;53.426;10.300;2023-04-01T00:06:46;99563.78;;;10.50;100.00
63111;BME280;49201;53.426;10.300;2023-04-01T00:09:13;99565.50;;;10.53;100.00
63111;BME280;49201;53.426;10.300;2023-04-01T00:11:39;99566.34;;;10.52;100.00
63111;BME280;49201;53.426;10.300;2023-04-01T00:14:05;99566.34;;;10.52;100.00
63111;BME280;49201;53.426;10.300;2023-04-01T00:16:31;99560.38;;;10.51;100.00
63111;BME280;49201;53.426;10.300;2023-04-01T00:18:56;99562.97;;;10.48;100.00
63111;BME280;49201;53.426;10.300;2023-04-01T00:21:22;99569.78;;;10.48;100.00
63111;BME280;49201;53.426;10.300;2023-04-01T00:23:49;99568.91;;;10.47;100.00
63111;BME280;49201;53.426;10.300;2023-04-01T00:26:14;99567.22;;;10.46;100.00
63111;BME280;49201;53.426;10.300;2023-04-01T00:28:44;99574.88;;;10.45;100.00
63111;BME280;49201;53.426;10.300;2023-04-01T00:31:14;99569.78;;;10.43;100.00
63111;BME280;49201;53.426;10.300;2023-04-01T00:33:40;99572.34;;;10.40;100.00
63111;BME280;49201;53.426;10.300;2023-04-01T00:36:13;99567.25;;;10.34;100.00
63111;BME280;49201;53.426;10.300;2023-04-01T00:38:39;99572.34;;;10.37;100.00
63111;BME280;49201;53.426;10.300;2023-04-01T00:41:06;99562.09;;;10.37;100.00
63111;BME280;49201;53.426;10.300;2023-04-01T00:43:32;99561.25;;;10.37;100.00
63111;BME280;49201;53.426;10.300;2023-04-01T00:45:58;99564.66;;;10.36;100.00
63111;BME280;49201;53.426;10.300;2023-04-01T00:48:30;99568.09;;;10.38;100.00
63111;BME280;49201;53.426;10.300;2023-04-01T00:51:04;99564.66;;;10.36;100.00
63111;BME280;49201;53.426;10.300;2023-04-01T00:53:32;99557.84;;;10.33;100.00
63111;BME280;49201;53.426;10.300;2023-04-01T00:56:07;99562.97;;;10.30;100.00
63111;BME280;49201;53.426;10.300;2023-04-01T00:58:38;99562.13;;;10.31;100.00
63111;BME280;49201;53.426;10.300;2023-04-01T01:01:06;99557.84;;;10.30;100.00
63111;BME280;49201;53.426;10.300;2023-04-01T01:03:33;99568.06;;;10.27;100.00
63111;BME280;49201;53.426;10.300;2023-04-01T01:08:57;99571.47;;;10.32;100.00
63111;BME280;49201;53.426;10.300;2023-04-01T01:11:36;99575.75;;;10.29;100.00
63111;BME280;49201;53.426;10.300;2023-04-01T01:14:19;99568.94;;;10.26;100.00
63111;BME280;49201;53.426;10.300;2023-04-01T01:16:55;99566.38;;;10.25;100.00
63111;BME280;49201;53.426;10.300;2023-04-01T01:25:11;99570.63;;;10.27;100.00
63111;BME280;49201;53.426;10.300;2023-04-01T01:27:42;99569.78;;;10.25;100.00
63111;BME280;49201;53.426;10.300;2023-04-01T01:35:57;99566.38;;;10.26;100.00
63111;BME280;49201;53.426;10.300;2023-04-01T01:38:27;99569.78;;;10.25;100.00
63111;BME280;49201;53.426;10.300;2023-04-01T01:40:58;99563.81;;;10.23;100.00
63111;BME280;49201;53.426;10.300;2023-04-01T01:43:30;99569.78;;;10.25;100.00
63111;BME280;49201;53.426;10.300;2023-04-01T01:45:59;99568.09;;;10.24;100.00
63111;BME280;49201;53.426;10.300;2023-04-01T01:48:27;99572.34;;;10.22;100.00
63111;BME280;49201;53.426;10.300;2023-04-01T01:50:54;99568.09;;;10.20;100.00
63111;BME280;49201;53.426;10.300;2023-04-01T01:53:20;99574.88;;;10.19;100.00
63111;BME280;49201;53.426;10.300;2023-04-01T01:55:47;99576.63;;;10.19;100.00
63111;BME280;49201;53.426;10.300;2023-04-01T02:00:50;99575.78;;;10.15;100.00
63111;BME280;49201;53.426;10.300;2023-04-01T02:03:20;99580.88;;;10.15;100.00
63111;BME280;49201;53.426;10.300;2023-04-01T02:05:47;99582.59;;;10.16;100.00
63111;BME280;49201;53.426;10.300;2023-04-01T02:08:17;99575.78;;;10.15;100.00
63111;BME280;49201;53.426;10.300;2023-04-01T02:10:51;99571.50;;;10.11;100.00
63111;BME280;49201;53.426;10.300;2023-04-01T02:13:35;99575.75;;;10.09;100.00
63111;BME280;49201;53.426;10.300;2023-04-01T02:16:09;99578.28;;;10.08;100.00
63111;BME280;49201;53.426;10.300;2023-04-01T02:18:38;99578.31;;;10.09;100.00
63111;BME280;49201;53.426;10.300;2023-04-01T02:21:05;99586.00;;;10.12;100.00
63111;BME280;49201;53.426;10.300;2023-04-01T02:23:36;99584.28;;;10.10;100.00
63111;BME280;49201;53.426;10.300;2023-04-01T02:26:04;99587.69;;;10.12;100.00
63111;BME280;49201;53.426;10.300;2023-04-01T02:28:31;99580.00;;;10.12;100.00
63111;BME280;49201;53.426;10.300;2023-04-01T02:30:59;99588.53;;;10.12;100.00
63111;BME280;49201;53.426;10.300;2023-04-01T02:33:27;99583.44;;;10.14;100.00
63111;BME280;49201;53.426;10.300;2023-04-01T02:35:53;99586.84;;;10.11;100.00
63111;BME280;49201;53.426;10.300;2023-04-01T02:38:18;99587.69;;;10.09;100.00
63111;BME280;49201;53.426;10.300;2023-04-01T02:40:50;99585.97;;;10.09;100.00
63111;BME280;49201;53.426;10.300;2023-04-01T02:43:16;99589.41;;;10.11;100.00
63111;BME280;49201;53.426;10.300;2023-04-01T02:45:42;99591.94;;;10.10;100.00
63111;BME280;49201;53.426;10.300;2023-04-01T02:48:08;99591.94;;;10.08;100.00
63111;BME280;49201;53.426;10.300;2023-04-01T02:50:33;99591.09;;;10.09;100.00
63111;BME280;49201;53.426;10.300;2023-04-01T02:52:59;99597.06;;;10.10;100.00
63111;BME280;49201;53.426;10.300;2023-04-01T02:55:25;99600.47;;;10.07;100.00
63111;BME280;49201;53.426;10.300;2023-04-01T02:57:50;99601.31;;;10.08;100.00
63111;BME280;49201;53.426;10.300;2023-04-01T03:00:16;99604.72;;;10.05;100.00
63111;BME280;49201;53.426;10.300;2023-04-01T03:02:42;99600.47;;;10.06;100.00
63111;BME280;49201;53.426;10.300;2023-04-01T03:05:09;99602.97;;;10.03;100.00
63111;BME280;49201;53.426;10.300;2023-04-01T03:07:35;99608.09;;;10.03;100.00
63111;BME280;49201;53.426;10.300;2023-04-01T03:10:01;99605.53;;;10.03;100.00
63111;BME280;49201;53.426;10.300;2023-04-01T03:12:26;99606.41;;;10.03;100.00
63111;BME280;49201;53.426;10.300;2023-04-01T03:14:52;99606.41;;;10.03;100.00
63111;BME280;49201;53.426;10.300;2023-04-01T03:17:17;99607.28;;;10.04;100.00
63111;BME280;49201;53.426;10.300;2023-04-01T03:19:44;99607.28;;;10.05;100.00
63111;BME280;49201;53.426;10.300;2023-04-01T03:22:10;99614.06;;;10.03;100.00
63111;BME280;49201;53.426;10.300;2023-04-01T03:24:36;99614.13;;;10.05;100.00
63111;BME280;49201;53.426;10.300;2023-04-01T03:27:02;99612.34;;;9.98;100.00
63111;BME280;49201;53.426;10.300;2023-04-01T03:29:27;99608.13;;;10.00;100.00
63111;BME280;49201;53.426;10.300;2023-04-01T03:31:53;99608.94;;;9.99;100.00
63111;BME280;49201;53.426;10.300;2023-04-01T03:34:18;99613.22;;;9.97;100.00
63111;BME280;49201;53.426;10.300;2023-04-01T03:36:44;99617.47;;;9.96;100.00
63111;BME280;49201;53.426;10.300;2023-04-01T03:39:09;99614.06;;;9.97;100.00
63111;BME280;49201;53.426;10.300;2023-04-01T03:41:40;99614.91;;;9.96;100.00
63111;BME280;49201;53.426;10.300;2023-04-01T03:44:05;99620.00;;;9.96;100.00
63111;BME280;49201;53.426;10.300;2023-04-01T03:46:31;99617.47;;;9.98;100.00
63111;BME280;49201;53.426;10.300;2023-04-01T03:48:57;99626.00;;;9.98;100.00
63111;BME280;49201;53.426;10.300;2023-04-01T03:51:22;99626.00;;;9.98;100.00
63111;BME280;49201;53.426;10.300;2023-04-01T03:53:48;99627.69;;;9.98;100.00
63111;BME280;49201;53.426;10.300;2023-04-01T03:56:15;99628.53;;;9.95;100.00
63111;BME280;49201;53.426;10.300;2023-04-01T03:58:40;99625.16;;;9.95;100.00
63111;BME280;49201;53.426;10.300;2023-04-01T04:01:19;99631.09;;;9.95;100.00
63111;BME280;49201;53.426;10.300;2023-04-01T04:03:47;99631.94;;;9.94;100.00
63111;BME280;49201;53.426;10.300;2023-04-01T04:06:16;99627.69;;;9.96;100.00
63111;BME280;49201;53.426;10.300;2023-04-01T04:08:43;99635.34;;;9.96;100.00
63111;BME280;49201;53.426;10.300;2023-04-01T04:11:09;99637.06;;;9.96;100.00
63111;BME280;49201;53.426;10.300;2023-04-01T04:13:38;99636.22;;;9.98;100.00
63111;BME280;49201;53.426;10.300;2023-04-01T04:16:04;99633.69;;;10.00;100.00
63111;BME280;49201;53.426;10.300;2023-04-01T04:18:30;99640.50;;;9.99;100.00
63111;BME280;49201;53.426;10.300;2023-04-01T04:20:56;99638.78;;;10.00;100.00
63111;BME280;49201;53.426;10.300;2023-04-01T04:23:22;99641.38;;;10.01;100.00
63111;BME280;49201;53.426;10.300;2023-04-01T04:25:58;99641.34;;;10.03;100.00
63111;BME280;49201;53.426;10.300;2023-04-01T04:28:27;99642.19;;;9.99;100.00
63111;BME280;49201;53.426;10.300;2023-04-01T04:30:54;99653.28;;;9.93;100.00
63111;BME280;49201;53.426;10.300;2023-04-01T04:33:23;99643.03;;;9.98;100.00
63111;BME280;49201;53.426;10.300;2023-04-01T04:35:50;99652.41;;;9.99;100.00
63111;BME280;49201;53.426;10.300;2023-04-01T04:38:16;99652.41;;;9.96;100.00
63111;BME280;49201;53.426;10.300;2023-04-01T04:40:43;99656.66;;;9.94;100.00
63111;BME280;49201;53.426;10.300;2023-04-01T04:43:14;99662.66;;;9.96;100.00
63111;BME280;49201;53.426;10.300;2023-04-01T04:45:41;99665.22;;;9.97;100.00
63111;BME280;49201;53.426;10.300;2023-04-01T04:48:09;99672.00;;;9.95;100.00
63111;BME280;49201;53.426;10.300;2023-04-01T04:50:35;99666.88;;;9.94;100.00
63111;BME280;49201;53.426;10.300;2023-04-01T04:53:01;99673.72;;;9.93;100.00
63111;BME280;49201;53.426;10.300;2023-04-01T04:55:26;99672.84;;;9.93;100.00
63111;BME280;49201;53.426;10.300;2023-04-01T04:58:12;99676.28;;;9.95;100.00
63111;BME280;49201;53.426;10.300;2023-04-01T05:00:41;99680.53;;;9.94;100.00
63111;BME280;49201;53.426;10.300;2023-04-01T05:03:11;99677.13;;;9.95;100.00
63111;BME280;49201;53.426;10.300;2023-04-01T05:05:38;99684.78;;;9.94;100.00
63111;BME280;49201;53.426;10.300;2023-04-01T05:08:04;99684.81;;;9.92;100.00
63111;BME280;49201;53.426;10.300;2023-04-01T05:10:30;99689.06;;;9.96;100.00
63111;BME280;49201;53.426;10.300;2023-04-01T05:12:56;99682.25;;;9.97;100.00
63111;BME280;49201;53.426;10.300;2023-04-01T05:15:23;99689.06;;;9.96;100.00
63111;BME280;49201;53.426;10.300;2023-04-01T05:17:48;99692.50;;;9.98;100.00
63111;BME280;49201;53.426;10.300;2023-04-01T05:20:14;99685.66;;;9.99;100.00
63111;BME280;49201;53.426;10.300;2023-04-01T05:22:40;99696.72;;;9.98;100.00
63111;BME280;49201;53.426;10.300;2023-04-01T05:25:06;99694.19;;;9.99;100.00
63111;BME280;49201;53.426;10.300;2023-04-01T05:27:33;99698.47;;;9.97;100.00
63111;BME280;49201;53.426;10.300;2023-04-01T05:29:59;99700.16;;;9.98;100.00
63111;BME280;49201;53.426;10.300;2023-04-01T05:32:40;99701.88;;;10.02;100.00
63111;BME280;49201;53.426;10.300;2023-04-01T05:35:06;99704.47;;;10.05;100.00
63111;BME280;49201;53.426;10.300;2023-04-01T05:37:33;99701.06;;;10.06;100.00
63111;BME280;49201;53.426;10.300;2023-04-01T05:39:59;99707.81;;;10.03;100.00
63111;BME280;49201;53.426;10.300;2023-04-01T05:42:25;99714.69;;;10.07;100.00
63111;BME280;49201;53.426;10.300;2023-04-01T05:44:51;99713.00;;;10.06;100.00
63111;BME280;49201;53.426;10.300;2023-04-01T05:47:35;99710.44;;;10.07;100.00
63111;BME280;49201;53.426;10.300;2023-04-01T05:50:00;99716.41;;;10.06;100.00
63111;BME280;49201;53.426;10.300;2023-04-01T05:52:26;99718.97;;;10.08;100.00
63111;BME280;49201;53.426;10.300;2023-04-01T05:54:51;99720.69;;;10.07;100.00
63111;BME280;49201;53.426;10.300;2023-04-01T05:57:17;99729.16;;;10.02;100.00
63111;BME280;49201;53.426;10.300;2023-04-01T05:59:43;99739.28;;;9.84;100.00
63111;BME280;49201;53.426;10.300;2023-04-01T06:02:10;99749.38;;;9.57;100.00
63111;BME280;49201;53.426;10.300;2023-04-01T06:04:38;99750.09;;;9.36;100.00
63111;BME280;49201;53.426;10.300;2023-04-01T06:07:15;99758.66;;;9.40;100.00
63111;BME280;49201;53.426;10.300;2023-04-01T06:09:41;99748.38;;;9.34;100.00
63111;BME280;49201;53.426;10.300;2023-04-01T06:12:37;99763.66;;;9.25;100.00
63111;BME280;49201;53.426;10.300;2023-04-01T06:20:33;99774.50;;;8.94;100.00
63111;BME280;49201;53.426;10.300;2023-04-01T06:26:05;99780.44;;;8.94;100.00
63111;BME280;49201;53.426;10.300;2023-04-01T06:28:41;99788.75;;;8.74;100.00
63111;BME280;49201;53.426;10.300;2023-04-01T06:31:54;99790.56;;;8.82;100.00
63111;BME280;49201;53.426;10.300;2023-04-01T06:34:14;99800.84;;;8.91;100.00
63111;BME280;49201;53.426;10.300;2023-04-01T06:48:12;99811.47;;;8.47;100.00
63111;BME280;49201;53.426;10.300;2023-04-01T06:56:37;99825.13;;;8.53;100.00
63111;BME280;49201;53.426;10.300;2023-04-01T06:59:18;99831.84;;;8.45;100.00
63111;BME280;49201;53.426;10.300;2023-04-01T07:01:50;99831.06;;;8.52;100.00
63111;BME280;49201;53.426;10.300;2023-04-01T07:04:33;99834.31;;;8.39;100.00
63111;BME280;49201;53.426;10.300;2023-04-01T07:07:05;99847.88;;;8.34;100.00
63111;BME280;49201;53.426;10.300;2023-04-01T07:09:49;99850.31;;;8.28;100.00
63111;BME280;49201;53.426;10.300;2023-04-01T07:15:28;99861.16;;;8.12;100.00
63111;BME280;49201;53.426;10.300;2023-04-01T07:18:01;99856.81;;;8.06;100.00
63111;BME280;49201;53.426;10.300;2023-04-01T07:20:35;99862.88;;;8.14;100.00
63111;BME280;49201;53.426;10.300;2023-04-01T07:23:05;99867.00;;;8.03;100.00
63111;BME280;49201;53.426;10.300;2023-04-01T07:26:04;99875.66;;;8.19;100.00
63111;BME280;49201;53.426;10.300;2023-04-01T07:28:32;99887.63;;;8.21;100.00
63111;BME280;49201;53.426;10.300;2023-04-01T07:36:45;99896.56;;;7.92;100.00
63111;BME280;49201;53.426;10.300;2023-04-01T07:44:58;99903.44;;;7.98;100.00
63111;BME280;49201;53.426;10.300;2023-04-01T07:53:01;99926.97;;;7.80;100.00
63111;BME280;49201;53.426;10.300;2023-04-01T08:00:52;99939.69;;;7.82;100.00
63111;BME280;49201;53.426;10.300;2023-04-01T08:13:03;99963.25;;;7.66;100.00
63111;BME280;49201;53.426;10.300;2023-04-01T08:15:44;99960.59;;;7.61;100.00
63111;BME280;49201;53.426;10.300;2023-04-01T08:21:42;99976.28;;;7.84;100.00
63111;BME280;49201;53.426;10.300;2023-04-01T08:24:42;99980.53;;;7.85;100.00
63111;BME280;49201;53.426;10.300;2023-04-01T08:27:31;99981.16;;;7.72;100.00
63111;BME280;49201;53.426;10.300;2023-04-01T08:32:37;99985.38;;;7.70;100.00
63111;BME280;49201;53.426;10.300;2023-04-01T08:37:41;100005.81;;;7.73;100.00
63111;BME280;49201;53.426;10.300;2023-04-01T08:43:09;100001.66;;;7.78;100.00
63111;BME280;49201;53.426;10.300;2023-04-01T08:48:23;100006.53;;;7.66;100.00
63111;BME280;49201;53.426;10.300;2023-04-01T09:05:21;100036.78;;;7.48;100.00
63111;BME280;49201;53.426;10.300;2023-04-01T09:14:07;100050.69;;;7.65;100.00
63111;BME280;49201;53.426;10.300;2023-04-01T09:17:04;100043.13;;;7.69;100.00
63111;BME280;49201;53.426;10.300;2023-04-01T09:20:44;100051.50;;;7.62;100.00
63111;BME280;49201;53.426;10.300;2023-04-01T09:25:30;100059.13;;;7.62;100.00
63111;BME280;49201;53.426;10.300;2023-04-01T09:28:10;100063.28;;;7.57;100.00
63111;BME280;49201;53.426;10.300;2023-04-01T09:31:08;100069.38;;;7.65;100.00
63111;BME280;49201;53.426;10.300;2023-04-01T09:37:21;100074.44;;;7.62;100.00
63111;BME280;49201;53.426;10.300;2023-04-01T09:40:16;100078.66;;;7.62;100.00
63111;BME280;49201;53.426;10.300;2023-04-01T09:49:15;100093.88;;;7.59;100.00
63111;BME280;49201;53.426;10.300;2023-04-01T09:54:48;100099.16;;;7.69;100.00
63111;BME280;49201;53.426;10.300;2023-04-01T10:09:21;100109.31;;;7.68;100.00
63111;BME280;49201;53.426;10.300;2023-04-01T10:20:17;100129.72;;;7.68;100.00
63111;BME280;49201;53.426;10.300;2023-04-01T10:23:07;100132.25;;;7.68;100.00
63111;BME280;49201;53.426;10.300;2023-04-01T10:36:56;100153.66;;;7.76;100.00
63111;BME280;49201;53.426;10.300;2023-04-01T10:39:38;100153.47;;;7.67;100.00
63111;BME280;49201;53.426;10.300;2023-04-01T10:53:58;100161.81;;;8.03;100.00
63111;BME280;49201;53.426;10.300;2023-04-01T10:59:50;100167.19;;;8.18;100.00
63111;BME280;49201;53.426;10.300;2023-04-01T11:20:24;100203.69;;;8.15;100.00
63111;BME280;49201;53.426;10.300;2023-04-01T11:25:36;100209.94;;;8.29;100.00
63111;BME280;49201;53.426;10.300;2023-04-01T11:28:35;100213.22;;;8.22;100.00
63111;BME280;49201;53.426;10.300;2023-04-01T11:31:25;100227.75;;;8.28;100.00
63111;BME280;49201;53.426;10.300;2023-04-01T11:39:59;100227.44;;;8.13;100.00
63111;BME280;49201;53.426;10.300;2023-04-01T11:46:36;100242.47;;;7.99;100.00
63111;BME280;49201;53.426;10.300;2023-04-01T11:54:39;100254.16;;;7.90;100.00
63111;BME280;49201;53.426;10.300;2023-04-01T12:00:22;100270.25;;;7.87;100.00
63111;BME280;49201;53.426;10.300;2023-04-01T12:03:22;100273.34;;;7.73;100.00
63111;BME280;49201;53.426;10.300;2023-04-01T12:06:14;100269.44;;;7.88;100.00
63111;BME280;49201;53.426;10.300;2023-04-01T12:14:36;100289.53;;;7.75;100.00
63111;BME280;49201;53.426;10.300;2023-04-01T12:20:01;100294.41;;;7.64;100.00
63111;BME280;49201;53.426;10.300;2023-04-01T12:30:57;100316.41;;;7.61;100.00
63111;BME280;49201;53.426;10.300;2023-04-01T12:37:02;100327.38;;;7.58;100.00
63111;BME280;49201;53.426;10.300;2023-04-01T12:51:44;100350.75;;;7.42;100.00
63111;BME280;49201;53.426;10.300;2023-04-01T12:57:42;100363.44;;;7.39;100.00
63111;BME280;49201;53.426;10.300;2023-04-01T13:01:34;100370.22;;;7.39;100.00
63111;BME280;49201;53.426;10.300;2023-04-01T13:27:48;100408.94;;;7.26;100.00
63111;BME280;49201;53.426;10.300;2023-04-01T13:30:37;100413.81;;;7.18;100.00
63111;BME280;49201;53.426;10.300;2023-04-01T13:39:41;100436.53;;;7.11;100.00
63111;BME280;49201;53.426;10.300;2023-04-01T13:44:44;100434.38;;;6.93;100.00
63111;BME280;49201;53.426;10.300;2023-04-01T13:52:58;100456.19;;;6.85;100.00
63111;BME280;49201;53.426;10.300;2023-04-01T13:55:46;100466.00;;;7.03;100.00
63111;BME280;49201;53.426;10.300;2023-04-01T14:01:39;100467.81;;;7.07;100.00
63111;BME280;49201;53.426;10.300;2023-04-01T14:37:23;100519.94;;;6.90;100.00
63111;BME280;49201;53.426;10.300;2023-04-01T14:45:32;100538.19;;;6.75;100.00
63111;BME280;49201;53.426;10.300;2023-04-01T14:48:23;100537.47;;;6.79;100.00
63111;BME280;49201;53.426;10.300;2023-04-01T14:50:53;100544.00;;;6.71;100.00
63111;BME280;49201;53.426;10.300;2023-04-01T14:55:59;100545.09;;;6.53;100.00
63111;BME280;49201;53.426;10.300;2023-04-01T14:58:49;100547.47;;;6.47;100.00
63111;BME280;49201;53.426;10.300;2023-04-01T15:14:47;100570.31;;;6.45;100.00
63111;BME280;49201;53.426;10.300;2023-04-01T15:20:34;100597.44;;;6.45;100.00
63111;BME280;49201;53.426;10.300;2023-04-01T15:29:06;100612.41;;;6.36;100.00
63111;BME280;49201;53.426;10.300;2023-04-01T15:31:48;100614.47;;;6.22;100.00
63111;BME280;49201;53.426;10.300;2023-04-01T15:37:16;100626.59;;;6.29;100.00
63111;BME280;49201;53.426;10.300;2023-04-01T15:45:48;100645.03;;;6.24;100.00
63111;BME280;49201;53.426;10.300;2023-04-01T15:53:54;100652.81;;;6.03;100.00
63111;BME280;49201;53.426;10.300;2023-04-01T15:59:26;100666.59;;;6.10;100.00
63111;BME280;49201;53.426;10.300;2023-04-01T16:11:01;100680.22;;;5.88;100.00
63111;BME280;49201;53.426;10.300;2023-04-01T16:13:42;100690.28;;;5.85;100.00
63111;BME280;49201;53.426;10.300;2023-04-01T16:16:14;100706.41;;;5.86;100.00
63111;BME280;49201;53.426;10.300;2023-04-01T16:24:17;100713.16;;;5.85;100.00
63111;BME280;49201;53.426;10.300;2023-04-01T16:26:53;100715.53;;;5.81;100.00
63111;BME280;49201;53.426;10.300;2023-04-01T16:32:34;100726.47;;;5.80;100.00
63111;BME280;49201;53.426;10.300;2023-04-01T16:35:20;100736.63;;;5.80;100.00
63111;BME280;49201;53.426;10.300;2023-04-01T16:38:03;100738.25;;;5.78;100.00
63111;BME280;49201;53.426;10.300;2023-04-01T16:40:50;100742.41;;;5.76;100.00
63111;BME280;49201;53.426;10.300;2023-04-01T16:43:26;100754.22;;;5.75;100.00
63111;BME280;49201;53.426;10.300;2023-04-01T16:51:36;100762.09;;;5.59;100.00
63111;BME280;49201;53.426;10.300;2023-04-01T16:54:13;100766.25;;;5.57;100.00
63111;BME280;49201;53.426;10.300;2023-04-01T16:59:37;100784.09;;;5.59;100.00
63111;BME280;49201;53.426;10.300;2023-04-01T17:04:42;100803.88;;;5.45;100.00
63111;BME280;49201;53.426;10.300;2023-04-01T17:07:19;100806.53;;;5.48;100.00
63111;BME280;49201;53.426;10.300;2023-04-01T17:15:46;100814.78;;;5.43;100.00
63111;BME280;49201;53.426;10.300;2023-04-01T17:18:25;100824.59;;;5.34;100.00
63111;BME280;49201;53.426;10.300;2023-04-01T17:21:03;100839.69;;;5.31;100.00
63111;BME280;49201;53.426;10.300;2023-04-01T17:23:33;100835.34;;;5.28;100.00
63111;BME280;49201;53.426;10.300;2023-04-01T17:31:30;100864.53;;;5.17;100.00
63111;BME280;49201;53.426;10.300;2023-04-01T17:34:23;100860.53;;;5.24;100.00
63111;BME280;49201;53.426;10.300;2023-04-01T17:37:25;100873.84;;;5.18;100.00
63111;BME280;49201;53.426;10.300;2023-04-01T17:42:59;100881.47;;;5.18;100.00
63111;BME280;49201;53.426;10.300;2023-04-01T17:45:43;100894.03;;;5.15;100.00
63111;BME280;49201;53.426;10.300;2023-04-01T17:53:59;100901.53;;;5.12;100.00
63111;BME280;49201;53.426;10.300;2023-04-01T17:56:37;100912.72;;;5.17;100.00
63111;BME280;49201;53.426;10.300;2023-04-01T17:59:26;100919.09;;;5.08;100.00
63111;BME280;49201;53.426;10.300;2023-04-01T18:08:36;100941.09;;;5.09;100.00
63111;BME280;49201;53.426;10.300;2023-04-01T18:11:13;100947.59;;;5.02;100.00
63111;BME280;49201;53.426;10.300;2023-04-01T18:22:10;100969.34;;;4.97;100.00
63111;BME280;49201;53.426;10.300;2023-04-01T18:24:43;100977.44;;;4.89;100.00
63111;BME280;49201;53.426;10.300;2023-04-01T18:27:30;100989.88;;;4.83;100.00
63111;BME280;49201;53.426;10.300;2023-04-01T18:30:13;100995.72;;;4.82;100.00
63111;BME280;49201;53.426;10.300;2023-04-01T18:32:58;101002.59;;;4.84;100.00
63111;BME280;49201;53.426;10.300;2023-04-01T18:40:37;101034.50;;;4.79;100.00
63111;BME280;49201;53.426;10.300;2023-04-01T18:43:10;101031.84;;;4.76;100.00
63111;BME280;49201;53.426;10.300;2023-04-01T18:45:41;101039.56;;;4.79;100.00
63111;BME280;49201;53.426;10.300;2023-04-01T18:48:12;101046.03;;;4.73;100.00
63111;BME280;49201;53.426;10.300;2023-04-01T18:50:42;101048.72;;;4.76;100.00
63111;BME280;49201;53.426;10.300;2023-04-01T18:53:26;101052.22;;;4.78;100.00
63111;BME280;49201;53.426;10.300;2023-04-01T18:56:01;101056.84;;;4.69;100.00
63111;BME280;49201;53.426;10.300;2023-04-01T18:58:48;101066.13;;;4.68;100.00
63111;BME280;49201;53.426;10.300;2023-04-01T19:01:22;101073.50;;;4.64;100.00
63111;BME280;49201;53.426;10.300;2023-04-01T19:03:57;101073.22;;;4.58;100.00
63111;BME280;49201;53.426;10.300;2023-04-01T19:06:43;101087.06;;;4.64;100.00
63111;BME280;49201;53.426;10.300;2023-04-01T19:09:25;101097.66;;;4.56;100.00
63111;BME280;49201;53.426;10.300;2023-04-01T19:12:14;101092.28;;;4.50;100.00
63111;BME280;49201;53.426;10.300;2023-04-01T19:20:18;101109.97;;;4.48;100.00
63111;BME280;49201;53.426;10.300;2023-04-01T19:25:57;101118.13;;;4.95;100.00
63111;BME280;49201;53.426;10.300;2023-04-01T19:28:31;101115.13;;;5.23;100.00
63111;BME280;49201;53.426;10.300;2023-04-01T19:36:29;101134.75;;;4.71;100.00
63111;BME280;49201;53.426;10.300;2023-04-01T19:41:57;101135.06;;;4.61;100.00
63111;BME280;49201;53.426;10.300;2023-04-01T19:44:40;101143.78;;;4.49;100.00
63111;BME280;49201;53.426;10.300;2023-04-01T19:47:18;101152.19;;;4.48;100.00
63111;BME280;49201;53.426;10.300;2023-04-01T19:52:42;101138.63;;;4.30;100.00
63111;BME280;49201;53.426;10.300;2023-04-01T20:00:53;101183.41;;;4.13;100.00
63111;BME280;49201;53.426;10.300;2023-04-01T20:03:36;101186.56;;;4.09;100.00
63111;BME280;49201;53.426;10.300;2023-04-01T20:08:54;101202.66;;;3.94;100.00
63111;BME280;49201;53.426;10.300;2023-04-01T20:19:32;101233.06;;;3.78;100.00
63111;BME280;49201;53.426;10.300;2023-04-01T20:22:00;101245.09;;;3.82;100.00
63111;BME280;49201;53.426;10.300;2023-04-01T20:24:42;101251.31;;;3.72;100.00
63111;BME280;49201;53.426;10.300;2023-04-01T20:27:17;101264.38;;;3.64;100.00
63111;BME280;49201;53.426;10.300;2023-04-01T20:30:24;101262.63;;;3.63;100.00
63111;BME280;49201;53.426;10.300;2023-04-01T20:36:32;101282.00;;;3.62;100.00
63111;BME280;49201;53.426;10.300;2023-04-01T20:42:48;101293.47;;;3.56;100.00
63111;BME280;49201;53.426;10.300;2023-04-01T20:45:26;101303.50;;;3.54;100.00
63111;BME280;49201;53.426;10.300;2023-04-01T20:50:48;101299.75;;;3.48;100.00
63111;BME280;49201;53.426;10.300;2023-04-01T20:53:20;101303.00;;;3.45;100.00
63111;BME280;49201;53.426;10.300;2023-04-01T21:04:22;101338.28;;;3.28;100.00
63111;BME280;49201;53.426;10.300;2023-04-01T21:17:54;101333.66;;;3.21;100.00
63111;BME280;49201;53.426;10.300;2023-04-01T21:29:19;101369.34;;;2.96;100.00
63111;BME280;49201;53.426;10.300;2023-04-01T21:37:42;101375.44;;;2.85;100.00
63111;BME280;49201;53.426;10.300;2023-04-01T21:51:39;101398.25;;;2.72;100.00
63111;BME280;49201;53.426;10.300;2023-04-01T22:05:18;101426.81;;;2.57;100.00
63111;BME280;49201;53.426;10.300;2023-04-01T22:10:51;101431.31;;;2.48;100.00
63111;BME280;49201;53.426;10.300;2023-04-01T22:13:32;101436.94;;;2.57;100.00
63111;BME280;49201;53.426;10.300;2023-04-01T22:18:45;101440.34;;;2.44;100.00
63111;BME280;49201;53.426;10.300;2023-04-01T22:34:49;101478.09;;;2.28;100.00
63111;BME280;49201;53.426;10.300;2023-04-01T22:37:57;101478.28;;;2.31;100.00
63111;BME280;49201;53.426;10.300;2023-04-01T22:40:23;101483.03;;;2.27;100.00